Time;durP1;ratioP1;P1;durP2;ratioP2;P2;SDS_P1;SDS_P2;PMS_P1;PMS_P2;Temp;Humidity;BMP_temperature;BMP_pressure;BME280_temperature;BME280_humidity;BME280_pressure;Samples;Min_cycle;Max_cycle;Signal;HPM_P1;HPM_P2
2020/12/15 00:00:55;;;;;;;5.30;3.10;;;16.60;99.90;;;;;;4444282;32;20191;-86
2020/12/15 00:03:23;;;;;;;7.55;3.80;;;16.60;99.90;;;;;;4441252;32;20138;-85
2020/12/15 00:05:52;;;;;;;5.10;2.80;;;16.60;99.90;;;;;;4435749;32;20467;-85
2020/12/15 00:08:20;;;;;;;10.57;3.40;;;16.60;99.90;;;;;;4437758;32;20113;-86
2020/12/15 00:10:48;;;;;;;4.45;2.80;;;16.60;99.90;;;;;;4433822;32;20124;-85
2020/12/15 00:13:16;;;;;;;3.58;3.05;;;16.60;99.90;;;;;;4444326;32;20445;-85
2020/12/15 00:15:43;;;;;;;5.07;2.70;;;16.60;99.90;;;;;;4449442;32;20093;-85
2020/12/15 00:18:11;;;;;;;8.93;3.12;;;16.60;99.90;;;;;;4431126;32;20042;-86
2020/12/15 00:20:46;;;;;;;3.83;3.00;;;16.60;99.90;;;;;;4438243;32;20492;-86
2020/12/15 00:23:14;;;;;;;3.20;2.87;;;16.60;99.90;;;;;;4445710;32;20209;-85
2020/12/15 00:25:42;;;;;;;6.87;3.72;;;16.70;99.90;;;;;;4437637;32;20089;-85
2020/12/15 00:28:09;;;;;;;15.63;3.90;;;16.60;99.90;;;;;;4432878;32;20089;-85
2020/12/15 00:30:37;;;;;;;12.25;4.20;;;16.50;99.90;;;;;;4442422;32;20109;-86
2020/12/15 00:33:06;;;;;;;3.92;2.87;;;16.50;99.90;;;;;;4431596;32;20073;-85
2020/12/15 00:35:33;;;;;;;6.00;3.08;;;16.50;99.90;;;;;;4435808;32;20516;-86
2020/12/15 00:38:01;;;;;;;6.93;2.60;;;16.50;99.90;;;;;;4439441;32;20097;-85
2020/12/15 00:40:29;;;;;;;3.35;2.97;;;16.50;99.90;;;;;;4447078;32;20719;-86
2020/12/15 00:42:56;;;;;;;9.70;3.20;;;16.60;99.90;;;;;;4444490;32;20095;-85
2020/12/15 00:45:24;;;;;;;8.70;3.75;;;16.60;99.90;;;;;;4439836;32;20122;-86
2020/12/15 00:47:52;;;;;;;5.90;2.33;;;16.60;99.90;;;;;;4429794;32;20105;-85
2020/12/15 00:50:20;;;;;;;2.58;2.37;;;16.60;99.90;;;;;;4428343;32;20482;-86
2020/12/15 00:52:49;;;;;;;2.58;2.47;;;16.70;99.90;;;;;;4439664;32;20687;-85
2020/12/15 00:55:16;;;;;;;4.40;2.80;;;16.70;99.90;;;;;;4439032;32;20050;-86
2020/12/15 00:57:44;;;;;;;6.35;3.97;;;16.70;99.90;;;;;;4439325;32;20054;-86
2020/12/15 01:00:13;;;;;;;5.87;3.58;;;16.70;99.90;;;;;;4437535;32;20758;-86
2020/12/15 01:02:41;;;;;;;4.87;4.57;;;16.80;99.90;;;;;;4429632;32;20571;-85
2020/12/15 01:05:09;;;;;;;6.53;4.37;;;16.70;99.90;;;;;;4437925;32;20079;-86
2020/12/15 01:07:37;;;;;;;3.92;3.53;;;16.70;99.90;;;;;;4440326;32;20062;-86
2020/12/15 01:10:06;;;;;;;3.80;3.50;;;16.60;99.90;;;;;;4433225;32;20617;-85
2020/12/15 01:12:36;;;;;;;6.65;3.45;;;16.60;99.90;;;;;;4438792;32;20357;-85
2020/12/15 01:15:05;;;;;;;4.55;4.25;;;16.50;99.90;;;;;;4439253;32;20138;-86
2020/12/15 01:17:32;;;;;;;4.07;3.53;;;16.40;99.90;;;;;;4428999;32;20140;-86
2020/12/15 01:20:01;;;;;;;5.53;3.70;;;16.40;99.90;;;;;;4431757;32;20127;-85
2020/12/15 01:22:30;;;;;;;4.60;2.90;;;16.30;99.90;;;;;;4438865;32;20079;-85
2020/12/15 01:24:59;;;;;;;3.30;3.10;;;16.20;99.90;;;;;;4441824;32;20118;-86
2020/12/15 01:27:28;;;;;;;4.12;3.00;;;16.20;99.90;;;;;;4441965;32;20138;-85
2020/12/15 01:29:57;;;;;;;3.53;2.90;;;16.20;99.90;;;;;;4442015;32;20116;-86
2020/12/15 01:32:27;;;;;;;3.95;2.70;;;16.20;99.90;;;;;;4431264;32;20076;-85
2020/12/15 01:34:55;;;;;;;3.33;3.03;;;16.30;99.90;;;;;;4433404;32;20762;-85
2020/12/15 01:37:23;;;;;;;11.00;3.83;;;16.40;99.90;;;;;;4442843;32;20053;-85
2020/12/15 01:39:51;;;;;;;9.40;8.30;;;16.50;99.90;;;;;;4434130;32;20128;-85
2020/12/15 01:42:19;;;;;;;5.97;3.87;;;16.50;99.90;;;;;;4442300;32;20424;-84
2020/12/15 01:44:48;;;;;;;11.70;4.18;;;16.50;99.90;;;;;;4439135;32;20109;-86
2020/12/15 01:47:17;;;;;;;9.38;3.85;;;16.50;99.90;;;;;;4443434;32;20051;-85
2020/12/15 01:49:45;;;;;;;4.15;3.83;;;16.50;99.90;;;;;;4442609;32;20686;-85
2020/12/15 01:52:14;;;;;;;2.90;2.80;;;16.50;99.90;;;;;;4421318;32;20666;-85
2020/12/15 01:54:44;;;;;;;3.28;2.50;;;16.60;99.90;;;;;;4446135;32;20053;-85
2020/12/15 01:57:12;;;;;;;2.47;2.37;;;16.70;99.90;;;;;;4430163;32;20114;-86
2020/12/15 01:59:41;;;;;;;3.60;2.50;;;16.70;99.90;;;;;;4439575;32;20105;-85
2020/12/15 02:02:11;;;;;;;2.95;2.70;;;16.70;99.90;;;;;;4429993;32;20045;-85
2020/12/15 02:04:40;;;;;;;3.17;2.50;;;16.70;99.90;;;;;;4423882;32;20103;-85
2020/12/15 02:07:09;;;;;;;2.60;2.40;;;16.70;99.90;;;;;;4429526;32;20098;-85
2020/12/15 02:09:37;;;;;;;5.47;2.58;;;16.70;99.90;;;;;;4440612;32;20128;-85
2020/12/15 02:12:10;;;;;;;2.60;2.45;;;16.80;99.90;;;;;;4435225;32;20299;-85
2020/12/15 02:14:43;;;;;;;2.55;2.40;;;16.80;99.90;;;;;;4426912;32;20081;-85
2020/12/15 02:17:13;;;;;;;2.70;2.40;;;16.80;99.90;;;;;;4423187;32;20105;-85
2020/12/15 02:19:47;;;;;;;3.33;2.80;;;16.80;99.90;;;;;;4439124;32;20458;-86
2020/12/15 02:22:20;;;;;;;3.30;3.10;;;16.80;99.90;;;;;;4437615;32;20061;-86
2020/12/15 02:24:48;;;;;;;3.95;3.30;;;16.80;99.90;;;;;;4437914;32;20402;-86
2020/12/15 02:27:16;;;;;;;2.90;2.80;;;16.80;99.90;;;;;;4437969;32;20080;-86
2020/12/15 02:29:44;;;;;;;5.05;3.17;;;16.80;99.90;;;;;;4446227;32;20105;-85
2020/12/15 02:32:13;;;;;;;10.50;4.25;;;16.90;99.90;;;;;;4433303;32;20050;-86
2020/12/15 02:34:42;;;;;;;3.15;2.95;;;16.90;99.90;;;;;;4442165;32;20075;-85
2020/12/15 02:37:14;;;;;;;4.00;3.25;;;16.80;99.90;;;;;;4413642;32;20440;-85
2020/12/15 02:39:43;;;;;;;2.67;2.50;;;16.70;99.90;;;;;;4422717;32;20053;-85
2020/12/15 02:42:11;;;;;;;2.83;2.60;;;16.60;99.90;;;;;;4445819;32;20084;-86
2020/12/15 02:44:38;;;;;;;5.55;3.12;;;16.60;99.90;;;;;;4442399;32;20128;-85
2020/12/15 02:47:08;;;;;;;4.60;2.62;;;16.50;99.90;;;;;;4443944;32;20644;-86
2020/12/15 02:49:37;;;;;;;5.37;3.15;;;16.50;99.90;;;;;;4441437;32;20147;-85
2020/12/15 02:52:06;;;;;;;4.22;3.20;;;16.40;99.90;;;;;;4434132;32;20066;-86
2020/12/15 02:54:34;;;;;;;3.97;3.50;;;16.40;99.90;;;;;;4441309;32;20314;-85
2020/12/15 02:57:04;;;;;;;4.80;2.85;;;16.30;99.90;;;;;;4433288;32;20078;-85
2020/12/15 02:59:31;;;;;;;2.60;2.50;;;16.20;99.90;;;;;;4435524;32;20061;-85
2020/12/15 03:02:00;;;;;;;3.00;2.37;;;16.20;99.90;;;;;;4436558;32;20096;-85
2020/12/15 03:04:29;;;;;;;2.40;2.30;;;16.20;99.90;;;;;;4429791;32;20089;-86
2020/12/15 03:06:57;;;;;;;2.30;2.10;;;16.20;99.90;;;;;;4433271;32;20131;-85
2020/12/15 03:09:25;;;;;;;2.70;2.50;;;16.10;99.90;;;;;;4440702;32;20120;-85
2020/12/15 03:11:57;;;;;;;2.17;2.08;;;16.10;99.90;;;;;;4451223;26;20047;-92
2020/12/15 03:14:27;;;;;;;2.30;2.10;;;16.10;99.90;;;;;;4402115;32;20112;-92
2020/12/15 03:16:58;;;;;;;2.40;2.20;;;16.10;99.90;;;;;;4402937;32;20050;-93
2020/12/15 03:19:27;;;;;;;3.67;2.42;;;16.20;99.90;;;;;;4385129;32;20094;-92
2020/12/15 03:21:56;;;;;;;2.20;2.10;;;16.20;99.90;;;;;;4395879;32;20097;-92
2020/12/15 03:24:26;;;;;;;2.35;2.12;;;16.30;99.90;;;;;;4390531;32;20940;-92
2020/12/15 03:26:56;;;;;;;4.50;2.83;;;16.30;99.90;;;;;;4406282;32;20080;-92
2020/12/15 03:29:33;;;;;;;3.53;2.60;;;16.30;99.90;;;;;;4401222;32;20405;-93
2020/12/15 03:32:06;;;;;;;3.35;2.50;;;16.30;99.90;;;;;;4389607;32;20080;-94
2020/12/15 03:34:45;;;;;;;2.97;2.70;;;16.30;99.90;;;;;;4402054;32;20238;-95
2020/12/15 03:37:16;;;;;;;4.00;2.60;;;16.30;99.90;;;;;;4389306;32;20402;-93
2020/12/15 03:39:51;;;;;;;3.58;2.78;;;16.30;99.90;;;;;;4397451;32;20076;-93
2020/12/15 03:42:40;;;;;;;7.90;2.92;;;16.30;99.90;;;;;;4384440;32;20062;-92
2020/12/15 03:45:09;;;;;;;5.20;3.08;;;16.30;99.90;;;;;;4392856;32;20113;-92
2020/12/15 03:47:44;;;;;;;4.05;2.92;;;16.30;99.90;;;;;;4388617;32;20142;-91
2020/12/15 03:50:17;;;;;;;2.83;2.60;;;16.20;99.90;;;;;;4394159;32;20054;-91
2020/12/15 03:52:53;;;;;;;2.70;2.60;;;16.10;99.90;;;;;;4384774;32;20057;-91
2020/12/15 03:55:24;;;;;;;2.50;2.37;;;16.00;99.90;;;;;;4376336;32;20119;-93
2020/12/15 03:57:53;;;;;;;2.70;2.50;;;16.00;99.90;;;;;;4384347;32;20105;-93
2020/12/15 04:00:22;;;;;;;2.67;2.50;;;15.90;99.90;;;;;;4384131;32;20130;-92
2020/12/15 04:02:55;;;;;;;3.47;2.35;;;15.80;99.90;;;;;;4385372;32;20552;-94
2020/12/15 04:05:23;;;;;;;8.13;3.30;;;15.80;99.90;;;;;;4388906;32;20412;-92
2020/12/15 04:07:57;;;;;;;3.22;2.90;;;15.70;99.90;;;;;;4406285;32;20537;-92
2020/12/15 04:10:28;;;;;;;4.50;2.90;;;15.70;99.90;;;;;;4397682;32;20066;-93
2020/12/15 04:13:05;;;;;;;4.35;3.12;;;15.70;99.90;;;;;;4386568;32;20105;-93
2020/12/15 04:15:36;;;;;;;3.25;2.80;;;15.70;99.90;;;;;;4399748;32;20396;-94
2020/12/15 04:18:10;;;;;;;7.68;3.30;;;15.70;99.90;;;;;;4398743;32;20058;-93
2020/12/15 04:20:45;;;;;;;3.55;3.30;;;15.60;99.90;;;;;;4395112;32;20699;-94
2020/12/15 04:23:16;;;;;;;5.60;3.70;;;15.60;99.90;;;;;;4391098;32;20062;-92
2020/12/15 04:25:54;;;;;;;6.85;3.17;;;15.60;99.90;;;;;;4388981;32;20054;-93
2020/12/15 04:28:28;;;;;;;4.15;3.75;;;15.60;99.90;;;;;;4410215;32;20101;-93
2020/12/15 04:30:57;;;;;;;6.75;3.55;;;15.60;99.90;;;;;;4398430;32;20055;-93
2020/12/15 04:33:30;;;;;;;7.43;3.90;;;15.50;99.90;;;;;;4401850;32;20062;-93
2020/12/15 04:35:58;;;;;;;6.10;3.87;;;15.60;99.90;;;;;;4398816;32;20606;-94
2020/12/15 04:38:33;;;;;;;14.80;4.22;;;15.60;99.90;;;;;;4389797;32;20061;-92
2020/12/15 04:41:11;;;;;;;8.27;4.30;;;15.60;99.90;;;;;;4398884;32;20098;-92
2020/12/15 04:43:44;;;;;;;8.48;4.00;;;15.60;99.90;;;;;;4390837;32;20108;-96
2020/12/15 04:46:25;;;;;;;7.70;3.80;;;15.50;99.90;;;;;;4394513;32;20102;-93
2020/12/15 04:49:07;;;;;;;8.35;4.32;;;15.50;99.90;;;;;;4385830;32;20098;-92
2020/12/15 04:51:57;;;;;;;5.43;3.40;;;15.40;99.90;;;;;;4399446;32;20124;-95
2020/12/15 04:54:35;;;;;;;7.10;3.70;;;15.30;99.90;;;;;;4400157;32;20077;-94
2020/12/15 04:57:18;;;;;;;11.57;4.70;;;15.30;99.90;;;;;;4401165;32;20088;-92
2020/12/15 04:59:52;;;;;;;5.07;3.75;;;15.30;99.90;;;;;;4390716;32;20050;-93
2020/12/15 05:02:21;;;;;;;7.57;3.95;;;15.30;99.90;;;;;;4385367;32;20177;-91
2020/12/15 05:05:37;;;;;;;11.23;4.45;;;15.30;99.90;;;;;;4397322;32;20062;-93
2020/12/15 05:08:18;;;;;;;10.13;6.50;;;15.30;99.90;;;;;;4396175;32;20163;-92
2020/12/15 05:10:46;;;;;;;5.65;4.12;;;15.20;99.90;;;;;;4409690;32;20515;-93
2020/12/15 05:13:29;;;;;;;7.28;4.18;;;15.20;99.90;;;;;;4389691;32;20404;-94
2020/12/15 05:15:57;;;;;;;11.55;4.37;;;15.20;99.90;;;;;;4388605;32;20756;-93
2020/12/15 05:18:37;;;;;;;8.38;3.87;;;15.20;99.90;;;;;;4390645;32;20191;-90
2020/12/15 05:21:13;;;;;;;7.80;4.20;;;15.20;99.90;;;;;;4388754;32;20406;-94
2020/12/15 05:23:46;;;;;;;9.98;3.37;;;15.20;99.90;;;;;;4387865;32;20117;-92
2020/12/15 05:26:24;;;;;;;5.40;3.30;;;15.30;99.90;;;;;;4390121;32;20062;-93
2020/12/15 05:29:18;;;;;;;;;;;;;;;;;;;;;
2020/12/15 05:31:51;;;;;;;4.55;3.40;;;15.20;99.90;;;;;;4398081;32;20056;-94
2020/12/15 05:34:26;;;;;;;3.78;2.70;;;15.20;99.90;;;;;;4384083;32;20110;-94
2020/12/15 05:37:18;;;;;;;3.37;2.47;;;15.30;99.90;;;;;;4385462;32;20062;-93
2020/12/15 05:40:00;;;;;;;4.40;2.60;;;15.20;99.90;;;;;;4391239;32;20055;-94
2020/12/15 05:42:42;;;;;;;3.58;2.72;;;15.20;99.90;;;;;;4393813;32;20186;-94
2020/12/15 05:45:19;;;;;;;3.03;2.75;;;15.20;99.90;;;;;;4386550;32;20113;-93
2020/12/15 05:47:59;;;;;;;2.60;2.40;;;15.20;99.90;;;;;;4393724;32;20111;-95
2020/12/15 05:50:32;;;;;;;3.33;2.62;;;15.20;99.90;;;;;;4388245;32;20111;-95
2020/12/15 05:53:08;;;;;;;3.95;2.67;;;15.20;99.90;;;;;;4401155;32;20617;-92
2020/12/15 05:55:38;;;;;;;2.50;2.33;;;15.20;99.90;;;;;;4402955;32;20058;-94
2020/12/15 05:58:16;;;;;;;3.33;2.45;;;15.20;99.90;;;;;;4407182;32;20060;-95
2020/12/15 06:00:46;;;;;;;;;;;15.10;99.90;;;;;;4393465;32;20063;-94
2020/12/15 06:03:22;;;;;;;4.10;2.33;;;15.10;99.90;;;;;;4394611;32;19965;-93
2020/12/15 06:05:57;;;;;;;;;;;15.10;99.90;;;;;;4387414;32;20059;-93
2020/12/15 06:08:39;;;;;;;2.90;2.12;;;15.10;99.90;;;;;;4399968;32;20036;-94
2020/12/15 06:11:11;;;;;;;2.60;2.20;;;15.00;99.90;;;;;;4393403;32;20089;-93
2020/12/15 06:13:51;;;;;;;4.35;2.50;;;15.10;99.90;;;;;;4390978;32;20076;-94
2020/12/15 06:16:23;;;;;;;4.78;2.40;;;15.10;99.90;;;;;;4394048;32;20146;-95
2020/12/15 06:18:51;;;;;;;3.10;2.83;;;15.10;99.90;;;;;;4390382;32;20090;-95
2020/12/15 06:21:29;;;;;;;3.10;2.15;;;15.10;99.90;;;;;;4389604;32;20115;-94
2020/12/15 06:24:02;;;;;;;2.53;2.30;;;15.10;99.90;;;;;;4403464;32;20062;-93
2020/12/15 06:26:35;;;;;;;2.55;2.40;;;15.10;99.90;;;;;;4395463;32;20062;-94
2020/12/15 06:29:07;;;;;;;3.22;2.17;;;15.20;99.90;;;;;;4393495;32;20414;-94
2020/12/15 06:31:36;;;;;;;3.00;2.10;;;15.20;99.90;;;;;;4401078;32;20054;-96
2020/12/15 06:34:32;;;;;;;2.10;2.00;;;15.30;99.90;;;;;;4402345;32;20059;-94
2020/12/15 06:37:02;;;;;;;2.37;2.30;;;15.40;99.90;;;;;;4387101;32;20114;-94
2020/12/15 06:39:30;;;;;;;3.00;2.33;;;15.40;99.90;;;;;;4390316;32;20106;-95
2020/12/15 06:42:07;;;;;;;3.00;2.80;;;15.40;99.90;;;;;;4388478;32;20089;-94
2020/12/15 06:44:38;;;;;;;4.03;2.67;;;15.40;99.90;;;;;;4389632;32;20072;-94
2020/12/15 06:47:06;;;;;;;4.53;2.80;;;15.40;99.90;;;;;;4401067;32;20062;-95
2020/12/15 06:49:37;;;;;;;2.87;2.50;;;15.30;99.90;;;;;;4390460;32;20046;-94
2020/12/15 06:52:08;;;;;;;2.50;2.40;;;15.30;99.90;;;;;;4383834;32;20088;-92
2020/12/15 06:54:39;;;;;;;2.67;2.58;;;15.30;99.90;;;;;;4417366;32;20043;-92
2020/12/15 06:57:12;;;;;;;3.55;3.10;;;15.30;99.90;;;;;;4393094;32;20083;-94
2020/12/15 06:59:49;;;;;;;3.30;3.10;;;15.20;99.90;;;;;;4393826;32;20062;-93
2020/12/15 07:02:29;;;;;;;3.20;2.92;;;15.20;99.90;;;;;;4391494;32;20379;-94
2020/12/15 07:05:28;;;;;;;3.30;3.00;;;15.20;99.90;;;;;;4406502;32;20543;-94
2020/12/15 07:08:06;;;;;;;4.78;2.80;;;15.10;99.90;;;;;;4387753;32;20089;-91
2020/12/15 07:10:41;;;;;;;5.57;2.90;;;15.10;99.90;;;;;;4386953;32;20112;-93
2020/12/15 07:13:12;;;;;;;4.18;2.60;;;14.90;99.90;;;;;;4411789;32;20086;-92
2020/12/15 07:15:40;;;;;;;4.57;2.97;;;14.70;99.90;;;;;;4413664;32;20046;-94
2020/12/15 07:18:15;;;;;;;4.60;4.20;;;14.60;99.90;;;;;;4388498;32;20443;-94
2020/12/15 07:20:43;;;;;;;2.92;2.20;;;14.40;99.90;;;;;;4409291;32;20147;-91
2020/12/15 07:23:17;;;;;;;2.25;2.15;;;14.30;99.90;;;;;;4384582;32;20074;-94
2020/12/15 07:25:47;;;;;;;6.75;2.40;;;14.30;99.90;;;;;;4391222;32;20109;-94
2020/12/15 07:28:18;;;;;;;6.37;2.62;;;14.30;99.90;;;;;;4400873;32;20628;-94
2020/12/15 07:30:47;;;;;;;1.90;1.80;;;14.40;99.90;;;;;;4392910;32;20584;-96
2020/12/15 07:33:20;;;;;;;2.53;2.33;;;14.40;99.90;;;;;;4395900;32;20057;-94
2020/12/15 07:35:48;;;;;;;5.03;1.95;;;14.50;99.90;;;;;;4384294;32;20496;-93
2020/12/15 07:38:27;;;;;;;5.50;1.80;;;14.60;99.90;;;;;;4389813;32;20111;-93
2020/12/15 07:40:58;;;;;;;4.65;3.10;;;14.70;99.90;;;;;;4387442;32;20070;-92
2020/12/15 07:43:32;;;;;;;10.35;2.95;;;14.80;99.90;;;;;;4391380;32;20540;-93
2020/12/15 07:46:08;;;;;;;5.87;3.50;;;14.80;99.90;;;;;;4398017;32;20120;-95
2020/12/15 07:48:41;;;;;;;5.10;3.37;;;14.80;99.90;;;;;;4392708;32;20069;-93
2020/12/15 07:51:16;;;;;;;3.97;3.67;;;14.80;99.90;;;;;;4391604;32;20529;-94
2020/12/15 07:53:59;;;;;;;3.90;2.15;;;14.80;99.90;;;;;;4395453;32;20514;-92
2020/12/15 07:56:37;;;;;;;4.22;1.80;;;14.70;99.90;;;;;;4391609;32;20067;-94
2020/12/15 07:59:18;;;;;;;5.68;2.90;;;14.80;99.90;;;;;;4394735;32;20107;-93
2020/12/15 08:01:52;;;;;;;5.10;2.60;;;14.70;99.90;;;;;;4385337;32;20094;-94
2020/12/15 08:04:43;;;;;;;3.62;3.30;;;14.80;99.90;;;;;;4393863;32;20383;-93
2020/12/15 08:07:21;;;;;;;5.07;4.75;;;14.90;99.90;;;;;;4394779;32;20836;-95
2020/12/15 08:10:00;;;;;;;4.03;3.60;;;15.00;99.90;;;;;;4396026;32;20485;-94
2020/12/15 08:12:37;;;;;;;8.55;3.10;;;15.20;99.90;;;;;;4391002;32;20069;-93
2020/12/15 08:15:13;;;;;;;7.05;4.70;;;16.10;99.90;;;;;;4390946;32;20090;-94
2020/12/15 08:18:28;;;;;;;6.03;4.20;;;19.00;99.90;;;;;;4391577;32;20078;-96
2020/12/15 08:21:24;;;;;;;4.18;3.83;;;21.50;99.90;;;;;;4388613;32;20066;-96
2020/12/15 08:27:51;;;;;;;5.40;5.10;;;26.10;99.70;;;;;;4397312;32;20073;-96
2020/12/15 08:31:10;;;;;;;5.70;5.43;;;28.10;95.10;;;;;;4398948;32;20791;-96
2020/12/15 08:33:42;;;;;;;11.02;10.48;;;30.30;86.90;;;;;;4387948;32;20058;-92
2020/12/15 08:36:14;;;;;;;8.55;8.05;;;;;;;;;;4411076;32;20085;-94
2020/12/15 08:38:43;;;;;;;9.30;8.73;;;;;;;;;;4409442;32;20495;-93
2020/12/15 08:41:20;;;;;;;12.07;11.38;;;;;;;;;;4397625;32;20478;-93
2020/12/15 08:43:53;;;;;;;13.13;12.52;;;;;;;;;;4405661;32;20080;-94
2020/12/15 08:46:23;;;;;;;16.80;12.20;;;;;;;;;;4389735;32;20155;-93
2020/12/15 08:48:52;;;;;;;1.23;0.40;;;;;;;;;;4384801;32;20517;-92
2020/12/15 08:51:23;;;;;;;13.35;12.65;;;;;;;;;;4384769;32;20055;-95
2020/12/15 08:53:53;;;;;;;;;;;;;;;;;;4400264;32;20538;-95
2020/12/15 08:56:21;;;;;;;12.63;12.02;;;;;;;;;;4401667;32;20009;-96
2020/12/15 08:58:49;;;;;;;11.50;10.98;;;;;;;;;;4388225;32;20085;-94
2020/12/15 09:01:29;;;;;;;6.30;1.17;;;;;;;;;;4396104;32;20070;-94
2020/12/15 09:03:57;;;;;;;14.07;13.20;;;;;;;;;;4398635;32;20062;-93
2020/12/15 09:06:35;;;;;;;3.60;1.10;;;;;;;;;;4407993;32;20224;-92
2020/12/15 09:09:05;;;;;;;12.30;11.60;;;;;;;;;;4407357;32;20058;-93
2020/12/15 09:11:36;;;;;;;14.18;13.30;;;;;;;;;;4387618;32;20382;-96
2020/12/15 09:14:08;;;;;;;16.08;15.18;;;;;;;;;;4405515;32;20076;-94
2020/12/15 09:16:37;;;;;;;15.73;14.80;;;;;;;;;;4401346;32;20062;-94
2020/12/15 09:19:13;;;;;;;15.40;14.60;;;;;;;;;;4405958;32;20085;-93
2020/12/15 09:21:42;;;;;;;18.60;17.67;;;;;;;;;;4402720;32;20129;-95
2020/12/15 09:24:12;;;;;;;1.58;1.15;;;28.40;82.50;;;;;;4399620;32;20474;-93
2020/12/15 09:26:40;;;;;;;15.20;13.88;;;;;;;;;;4407556;32;20088;-94
2020/12/15 09:29:10;;;;;;;7.00;3.42;;;;;;;;;;4410137;32;20046;-93
2020/12/15 09:31:42;;;;;;;10.40;9.73;;;;;;;;;;4403632;32;20085;-94
2020/12/15 09:34:10;;;;;;;5.37;4.95;;;;;;;;;;4415252;32;20054;-96
2020/12/15 09:36:38;;;;;;;22.77;21.65;;;27.40;86.90;;;;;;4415322;32;20042;-94
2020/12/15 09:39:06;;;;;;;3.42;3.12;;;;;;;;;;4410109;32;20446;-93
2020/12/15 09:41:36;;;;;;;1.55;0.60;;;;;;;;;;4411663;32;20103;-92
2020/12/15 09:44:04;;;;;;;4.12;3.72;;;;;;;;;;4388280;32;20058;-93
2020/12/15 09:46:32;;;;;;;19.60;18.62;;;;;;;;;;4388640;32;20117;-94
2020/12/15 09:49:03;;;;;;;1.42;0.70;;;;;;;;;;4412523;32;20479;-93
2020/12/15 09:51:33;;;;;;;21.80;20.80;;;;;;;;;;4396859;32;20124;-93
2020/12/15 09:54:02;;;;;;;20.73;19.73;;;;;;;;;;4388037;32;20373;-93
2020/12/15 09:56:31;;;;;;;6.53;6.22;;;;;;;;;;4415247;32;20435;-95
2020/12/15 09:58:59;;;;;;;3.47;0.98;;;;;;;;;;4397732;32;20483;-92
2020/12/15 10:01:28;;;;;;;1.67;0.60;;;;;;;;;;4411510;32;20051;-94
2020/12/15 10:03:56;;;;;;;10.32;9.77;;;;;;;;;;4400670;32;20054;-93
2020/12/15 10:06:25;;;;;;;1.92;1.83;;;;;;;;;;4398907;32;20174;-94
2020/12/15 10:08:54;;;;;;;2.85;2.62;;;;;;;;;;4408120;32;20047;-93
2020/12/15 10:11:24;;;;;;;4.97;1.60;;;;;;;;;;4402303;32;20054;-94
2020/12/15 10:13:53;;;;;;;3.30;3.10;;;;;;;;;;4410211;32;20082;-93
2020/12/15 10:16:21;;;;;;;23.87;22.60;;;;;;;;;;4395601;32;20643;-94
2020/12/15 10:18:50;;;;;;;5.07;1.30;;;;;;;;;;4398230;32;20137;-93
2020/12/15 10:21:18;;;;;;;32.78;30.92;;;;;;;;;;4397999;32;20365;-92
2020/12/15 10:23:49;;;;;;;7.32;4.72;;;;;;;;;;4404082;32;20403;-92
2020/12/15 10:26:23;;;;;;;2.75;2.55;;;24.40;94.70;;;;;;4397815;32;20093;-94
2020/12/15 10:28:56;;;;;;;28.15;26.62;;;;;;;;;;4410451;32;20089;-94
2020/12/15 10:31:24;;;;;;;31.23;29.67;;;;;;;;;;4386931;32;20074;-94
2020/12/15 10:33:55;;;;;;;1.65;0.82;;;;;;;;;;4408994;32;20164;-94
2020/12/15 10:36:24;;;;;;;3.42;1.00;;;;;;;;;;4397893;32;20934;-93
2020/12/15 10:38:53;;;;;;;16.77;15.88;;;;;;;;;;4411294;32;20078;-93
2020/12/15 10:41:27;;;;;;;4.37;1.45;;;;;;;;;;4409836;32;20108;-92
2020/12/15 10:43:56;;;;;;;4.37;0.80;;;;;;;;;;4413099;32;20111;-94
2020/12/15 10:46:26;;;;;;;7.78;1.37;;;;;;;;;;4396744;32;20097;-92
2020/12/15 10:48:55;;;;;;;0.65;0.65;;;;;;;;;;4402834;32;20114;-92
2020/12/15 10:51:25;;;;;;;2.28;0.90;;;21.90;99.90;;;;;;4415924;32;20090;-92
2020/12/15 10:53:53;;;;;;;4.47;1.27;;;;;;;;;;4406831;32;20143;-92
2020/12/15 10:56:23;;;;;;;2.65;1.40;;;;;;;;;;4413478;32;20113;-93
2020/12/15 10:58:52;;;;;;;1.58;0.50;;;;;;;;;;4412938;32;20107;-92
2020/12/15 11:01:21;;;;;;;3.00;1.10;;;;;;;;;;4400987;32;20094;-92
2020/12/15 11:03:51;;;;;;;11.90;11.30;;;;;;;;;;4407876;32;20445;-93
2020/12/15 11:06:23;;;;;;;19.83;18.83;;;;;;;;;;4404722;32;20102;-92
2020/12/15 11:08:53;;;;;;;14.75;14.05;;;;;;;;;;4406460;32;20091;-93
2020/12/15 11:11:22;;;;;;;14.52;13.75;;;;;;;;;;4400455;32;20039;-94
2020/12/15 11:13:53;;;;;;;7.18;6.82;;;;;;;;;;4401287;32;20715;-94
2020/12/15 11:16:31;;;;;;;1.37;0.40;;;28.20;86.50;;;;;;4390790;32;20074;-94
2020/12/15 11:18:59;;;;;;;1.92;0.68;;;;;;;;;;4399545;32;20482;-93
2020/12/15 11:21:28;;;;;;;3.92;3.83;;;;;;;;;;4399264;32;20054;-93
2020/12/15 11:23:56;;;;;;;13.38;12.77;;;;;;;;;;4412546;32;20090;-95
2020/12/15 11:26:24;;;;;;;1.70;0.70;;;;;;;;;;4408333;32;20094;-93
2020/12/15 11:28:53;;;;;;;1.42;0.70;;;;;;;;;;4404640;32;20136;-93
2020/12/15 11:31:21;;;;;;;2.25;0.80;;;;;;;;;;4382259;32;20115;-94
2020/12/15 11:33:50;;;;;;;2.47;0.82;;;;;;;;;;4400591;32;20065;-93
2020/12/15 11:36:18;;;;;;;2.53;1.12;;;;;;;;;;4389227;32;20077;-91
2020/12/15 11:38:46;;;;;;;1.27;0.82;;;;;;;;;;4402743;32;20530;-92
2020/12/15 11:41:14;;;;;;;4.72;1.20;;;;;;;;;;4413129;32;20055;-91
2020/12/15 11:43:43;;;;;;;2.12;1.70;;;;;;;;;;4398014;32;20557;-92
2020/12/15 11:46:11;;;;;;;9.45;8.70;;;22.80;99.40;;;;;;4413216;32;20053;-91
2020/12/15 11:48:41;;;;;;;2.17;0.90;;;;;;;;;;4389657;32;20099;-91
2020/12/15 11:51:09;;;;;;;4.25;3.42;;;;;;;;;;4413797;32;20038;-90
2020/12/15 11:53:37;;;;;;;1.60;1.50;;;;;;;;;;4412455;32;20047;-91
2020/12/15 11:56:06;;;;;;;1.48;1.05;;;;;;;;;;4402667;32;20433;-92
2020/12/15 11:58:41;;;;;;;0.90;0.60;;;;;;;;;;4412183;32;20110;-91
2020/12/15 12:01:12;;;;;;;1.65;1.00;;;;;;;;;;4388655;32;20062;-92
2020/12/15 12:03:41;;;;;;;8.35;7.90;;;;;;;;;;4401986;32;20073;-92
2020/12/15 12:06:09;;;;;;;2.25;0.88;;;;;;;;;;4402346;32;20084;-92
2020/12/15 12:08:37;;;;;;;0.80;0.80;;;;;;;;;;4394959;32;20058;-90
2020/12/15 12:11:11;;;;;;;0.68;0.50;;;;;;;;;;4399648;32;20062;-91
2020/12/15 12:13:39;;;;;;;1.92;1.23;;;;;;;;;;4401034;32;20108;-93
2020/12/15 12:16:08;;;;;;;3.85;2.35;;;;;;;;;;4404372;32;20074;-95
2020/12/15 12:18:37;;;;;;;3.55;2.70;;;22.90;98.70;;;;;;4390859;32;20070;-94
2020/12/15 12:21:05;;;;;;;2.05;1.83;;;23.70;97.00;;;;;;4390986;32;20100;-94
2020/12/15 12:23:33;;;;;;;3.35;2.05;;;22.80;96.90;;;;;;4406959;32;20121;-93
2020/12/15 12:26:01;;;;;;;3.95;1.27;;;22.60;97.10;;;;;;4391250;32;20058;-95
2020/12/15 12:28:32;;;;;;;8.30;2.22;;;22.50;98.40;;;;;;4413601;32;20077;-94
2020/12/15 12:31:13;;;;;;;;;;;;;;;;;;;;;
2020/12/15 12:33:42;;;;;;;3.92;1.77;;;;;;;;;;4404769;32;20050;-94
2020/12/15 12:36:11;;;;;;;4.80;1.25;;;;;;;;;;4406995;32;20065;-94
2020/12/15 12:38:39;;;;;;;5.47;1.37;;;;;;;;;;4386060;32;20136;-93
2020/12/15 12:41:07;;;;;;;3.00;1.30;;;19.90;99.90;;;;;;4400245;32;20482;-91
2020/12/15 12:43:36;;;;;;;3.25;1.35;;;;;;;;;;4411152;32;20090;-92
2020/12/15 12:46:04;;;;;;;1.25;1.05;;;;;;;;;;4404019;32;20062;-93
2020/12/15 12:48:33;;;;;;;2.95;0.80;;;;;;;;;;4403898;32;20058;-92
2020/12/15 12:51:02;;;;;;;5.35;1.08;;;;;;;;;;4386507;32;20081;-93
2020/12/15 12:53:30;;;;;;;2.72;1.52;;;;;;;;;;4387378;32;20066;-94
2020/12/15 12:55:58;;;;;;;7.45;1.65;;;;;;;;;;4416828;32;20111;-92
2020/12/15 12:58:27;;;;;;;3.12;1.27;;;20.50;99.90;;;;;;4392422;32;20089;-93
2020/12/15 13:00:56;;;;;;;5.15;0.85;;;;;;;;;;4387159;32;20063;-94
2020/12/15 13:03:24;;;;;;;2.85;1.10;;;;;;;;;;4404175;32;20066;-95
2020/12/15 13:05:53;;;;;;;3.20;1.15;;;;;;;;;;4403381;32;20110;-92
2020/12/15 13:08:21;;;;;;;2.92;1.10;;;20.90;99.90;;;;;;4411047;32;20427;-92
2020/12/15 13:10:49;;;;;;;2.75;1.20;;;;;;;;;;4402230;32;20443;-94
2020/12/15 13:13:18;;;;;;;1.83;1.08;;;;;;;;;;4401784;32;20081;-94
2020/12/15 13:15:46;;;;;;;3.45;0.82;;;;;;;;;;4391076;32;20406;-91
2020/12/15 13:18:14;;;;;;;3.80;1.37;;;;;;;;;;4387958;32;20138;-92
2020/12/15 13:20:43;;;;;;;3.17;0.95;;;;;;;;;;4385608;32;20094;-94
2020/12/15 13:23:11;;;;;;;4.10;0.95;;;21.80;99.90;;;;;;4376626;32;20059;-96
2020/12/15 13:25:39;;;;;;;3.65;0.80;;;21.30;99.90;;;;;;4413162;32;20495;-95
2020/12/15 13:28:07;;;;;;;1.55;0.70;;;21.10;99.90;;;;;;4384182;32;20082;-93
2020/12/15 13:30:36;;;;;;;1.70;0.85;;;20.60;99.90;;;;;;4402194;32;20117;-95
2020/12/15 13:33:04;;;;;;;2.50;0.77;;;20.20;99.90;;;;;;4409872;32;20050;-94
2020/12/15 13:35:33;;;;;;;11.30;1.30;;;20.40;99.90;;;;;;4405713;32;20093;-93
2020/12/15 13:38:02;;;;;;;4.40;1.48;;;20.60;99.90;;;;;;4407900;32;20077;-94
2020/12/15 13:40:30;;;;;;;6.07;1.27;;;20.80;99.90;;;;;;4382891;32;20073;-94
2020/12/15 13:43:00;;;;;;;3.28;1.62;;;20.70;99.90;;;;;;4399713;32;20058;-94
2020/12/15 13:45:28;;;;;;;3.08;0.98;;;21.00;99.90;;;;;;4387512;32;20062;-94
2020/12/15 13:48:15;;;;;;;4.15;1.02;;;21.20;99.90;;;;;;4415936;32;20039;-94